< < Back
Terminal Aerodrome Forecast


Current Version              Previous Versions:   1  2  3  4  5  6  7  8  9  

Terminal Aerodrome Forecast

779
FTUS42 KTAE 230500
TAFABY
TAF
KABY 230537Z 2306/2406 08008KT 3SM RA BR BKN012 OVC022
     FM231600 17011G15KT 5SM RA SCT015 BKN030
     FM231800 18012G20KT P6SM VCTS BKN015CB BKN030
      TEMPO 2320/2323 VRB20G30KT 2SM +TSRA
     FM240100 20011KT 4SM -RA BR OVC004=

Latest METAR

098
SAUS70 KWBC 231100
MTRABY
METAR KABY 231053Z 09006KT 10SM OVC006 16/16 A2998 RMK AO2 CIG 005V011
SLP152 P0003 T01610156


USA.gov is the U.S. government's official web portal to all federal, state and local government web resources and services.